Time;durP1;ratioP1;P1;durP2;ratioP2;P2;SDS_P1;SDS_P2;PMS_P1;PMS_P2;Temp;Humidity;BMP_temperature;BMP_pressure;BME280_temperature;BME280_humidity;BME280_pressure;Samples;Min_cycle;Max_cycle;Signal;HPM_P1;HPM_P2
2022/10/29 00:00:50;;;;;;;;;21.00;17.00;;;;;19.21;100.00;101263.41;4915741;28;45820;-82
2022/10/29 00:03:16;;;;;;;;;17.67;17.33;;;;;19.22;100.00;101255.31;4917709;28;45354;-82
2022/10/29 00:05:42;;;;;;;;;20.33;17.00;;;;;19.18;100.00;101254.44;4916199;28;45558;-82
2022/10/29 00:08:07;;;;;;;;;20.00;13.33;;;;;19.22;100.00;101255.31;4914511;28;46762;-81
2022/10/29 00:10:32;;;;;;;;;22.00;21.00;;;;;19.22;100.00;101258.00;4900371;28;45449;-81
2022/10/29 00:13:01;;;;;;;;;17.67;17.00;;;;;19.21;100.00;101248.16;4880508;29;45688;-81
2022/10/29 00:15:26;;;;;;;;;24.33;23.00;;;;;19.15;100.00;101223.97;4897721;28;45300;-81
2022/10/29 00:17:52;;;;;;;;;14.33;14.33;;;;;19.18;100.00;101240.09;4897490;28;46586;-82
2022/10/29 00:20:19;;;;;;;;;13.00;13.00;;;;;19.16;100.00;101225.72;4896735;28;45577;-81
2022/10/29 00:22:45;;;;;;;;;18.67;18.67;;;;;19.12;100.00;101229.38;4896600;28;44860;-82
2022/10/29 00:25:12;;;;;;;;;17.67;16.33;;;;;19.11;100.00;101223.09;4896883;29;45490;-81
2022/10/29 00:27:37;;;;;;;;;13.33;12.67;;;;;19.16;100.00;101225.72;4865438;29;45517;-81
2022/10/29 00:30:05;;;;;;;;;19.00;16.67;;;;;19.17;100.00;101224.84;4882965;29;44912;-81
2022/10/29 00:32:30;;;;;;;;;15.33;14.67;;;;;19.12;100.00;101215.91;4897261;28;44874;-81
2022/10/29 00:34:57;;;;;;;;;21.00;18.33;;;;;19.18;100.00;101229.31;4898888;28;45480;-82
2022/10/29 00:37:23;;;;;;;;;19.67;18.00;;;;;19.16;100.00;101228.44;4899200;28;45374;-82
2022/10/29 00:39:48;;;;;;;;;19.67;17.33;;;;;19.17;100.00;101212.25;4897464;28;45336;-82
2022/10/29 00:42:15;;;;;;;;;19.33;15.00;;;;;19.17;100.00;101211.34;4898533;28;45484;-82
2022/10/29 00:44:41;;;;;;;;;21.33;17.67;;;;;19.10;100.00;101190.78;4896793;28;45598;-82
2022/10/29 00:47:24;;;;;;;;;17.67;16.00;;;;;19.14;100.00;101179.03;4897709;28;47017;-81
2022/10/29 00:49:57;;;;;;;;;22.67;18.33;;;;;19.15;100.00;101194.31;4880971;29;45491;-82
2022/10/29 00:52:25;;;;;;;;;23.00;20.00;;;;;19.11;100.00;101179.09;4898707;29;44866;-81
2022/10/29 00:54:56;;;;;;;;;13.33;12.00;;;;;19.13;100.00;101197.03;4899569;28;44784;-81
2022/10/29 00:57:27;;;;;;;;;15.67;15.67;;;;;19.11;100.00;101198.84;4882215;28;47777;-82
2022/10/29 00:59:53;;;;;;;;;21.33;17.33;;;;;19.08;100.00;101188.09;4899198;28;45408;-81
2022/10/29 01:02:20;;;;;;;;;18.33;18.33;;;;;19.11;100.00;101188.06;4898966;28;45442;-81
2022/10/29 01:04:48;;;;;;;;;17.67;17.00;;;;;19.11;100.00;101187.19;4866003;29;45397;-81
2022/10/29 01:07:14;;;;;;;;;20.33;18.00;;;;;19.13;100.00;101163.78;4880347;29;46401;-81
2022/10/29 01:09:40;;;;;;;;;17.33;17.33;;;;;19.09;100.00;101156.66;4905796;28;44754;-81
2022/10/29 01:12:17;;;;;;;;;21.33;15.67;;;;;19.12;100.00;101143.13;4919042;28;45490;-82
2022/10/29 01:15:06;;;;;;;;;18.00;17.00;;;;;19.11;100.00;101144.94;4901344;28;44817;-81
2022/10/29 01:18:10;;;;;;;;;18.00;17.00;;;;;19.12;100.00;101143.13;4909332;29;45795;-81
2022/10/29 01:21:13;;;;;;;;;15.00;13.67;;;;;18.91;100.00;101114.69;4898402;28;44785;-80
2022/10/29 01:23:59;;;;;;;;;20.00;18.33;;;;;19.07;100.00;101142.31;4862542;29;45519;-81
2022/10/29 01:26:49;;;;;;;;;17.67;17.67;;;;;19.04;100.00;101143.22;4861356;29;45666;-81
2022/10/29 01:29:46;;;;;;;;;20.00;17.67;;;;;19.04;100.00;101147.72;4875831;29;45677;-81
2022/10/29 01:32:23;;;;;;;;;18.00;16.67;;;;;19.02;100.00;101144.16;4876839;29;45319;-81
2022/10/29 01:34:54;;;;;;;;;13.00;13.00;;;;;18.95;100.00;101136.16;4877613;29;44977;-80
2022/10/29 01:37:25;;;;;;;;;14.67;14.67;;;;;18.97;100.00;101136.16;4877938;29;45484;-81
2022/10/29 01:39:58;;;;;;;;;15.67;14.67;;;;;18.92;100.00;101111.94;4877090;29;45753;-81
2022/10/29 01:42:31;;;;;;;;;19.67;19.33;;;;;18.93;100.00;101129.91;4876660;29;44918;-81
2022/10/29 01:45:22;;;;;;;;;21.33;19.67;;;;;18.89;100.00;101122.78;4877956;29;45430;-80
2022/10/29 01:47:56;;;;;;;;;21.33;16.00;;;;;18.86;100.00;101120.09;4862655;29;45421;-81
2022/10/29 01:50:23;;;;;;;;;18.00;16.33;;;;;18.80;100.00;101098.63;4876967;29;46104;-80
2022/10/29 01:52:50;;;;;;;;;17.00;17.00;;;;;18.80;100.00;101101.34;4878012;29;45405;-80
2022/10/29 01:55:28;;;;;;;;;19.67;19.67;;;;;18.82;100.00;101093.25;4877226;29;45424;-80
2022/10/29 01:57:54;;;;;;;;;17.67;16.33;;;;;18.78;100.00;101086.97;4877663;29;45464;-80
2022/10/29 02:00:23;;;;;;;;;23.33;19.00;;;;;18.75;100.00;101073.56;4877038;29;45039;-80
2022/10/29 02:03:29;;;;;;;;;23.33;19.00;;;;;18.80;100.00;101098.63;4880949;29;45293;-80
2022/10/29 02:06:07;;;;;;;;;20.67;19.33;;;;;18.78;100.00;101082.50;4901018;29;45547;-81
2022/10/29 02:08:51;;;;;;;;;10.00;10.00;;;;;18.79;100.00;101083.41;4915918;28;45466;-81
2022/10/29 02:11:44;;;;;;;;;20.00;20.00;;;;;18.78;100.00;101070.78;4915793;29;46997;-81
2022/10/29 02:14:19;;;;;;;;;17.67;15.33;;;;;18.72;100.00;101062.81;4916239;29;45515;-81
2022/10/29 02:16:48;;;;;;;;;14.00;13.67;;;;;18.75;100.00;101057.38;4898468;29;45618;-81
2022/10/29 02:19:14;;;;;;;;;21.67;21.67;;;;;18.74;100.00;101058.28;4914912;28;45509;-82
2022/10/29 02:21:41;;;;;;;;;16.33;15.33;;;;;18.70;100.00;101060.13;4915704;28;47114;-81
2022/10/29 02:27:31;;;;;;;;;19.67;16.33;;;;;18.68;100.00;101059.25;4916208;28;45498;-82
2022/10/29 02:29:56;;;;;;;;;14.00;14.00;;;;;18.65;100.00;101044.97;4898729;28;45426;-82
2022/10/29 02:32:25;;;;;;;;;21.00;20.00;;;;;18.65;100.00;101040.44;4917424;29;47217;-82
2022/10/29 02:34:50;;;;;;;;;15.67;15.67;;;;;18.66;100.00;101041.34;4918010;28;44848;-81
2022/10/29 02:37:18;;;;;;;;;20.00;18.00;;;;;18.64;100.00;101037.78;4919054;28;45448;-82
2022/10/29 02:39:44;;;;;;;;;12.00;12.00;;;;;18.65;100.00;101042.25;4918609;29;44813;-82
2022/10/29 02:42:09;;;;;;;;;18.00;18.00;;;;;18.68;100.00;101047.59;4917364;28;46950;-82
2022/10/29 02:44:35;;;;;;;;;15.33;15.33;;;;;18.64;100.00;101030.56;4901991;29;45440;-82
2022/10/29 02:47:00;;;;;;;;;18.67;18.67;;;;;18.66;100.00;101039.53;4918098;29;45483;-81
2022/10/29 02:49:25;;;;;;;;;17.00;17.00;;;;;18.66;100.00;101044.03;4919108;28;44841;-82
2022/10/29 02:51:51;;;;;;;;;13.67;13.67;;;;;18.69;100.00;101050.28;4917249;28;46467;-82
2022/10/29 02:54:16;;;;;;;;;14.67;13.00;;;;;18.65;100.00;101021.59;4917772;29;45481;-82
2022/10/29 02:56:43;;;;;;;;;13.33;13.33;;;;;18.65;100.00;101031.50;4919468;29;44778;-81
2022/10/29 02:59:09;;;;;;;;;11.67;10.00;;;;;18.68;100.00;101037.69;4920187;28;44718;-81
2022/10/29 03:01:37;;;;;;;;;15.00;14.67;;;;;18.69;100.00;101033.22;4918702;28;48633;-81
2022/10/29 03:04:02;;;;;;;;;16.67;14.67;;;;;18.62;100.00;101009.97;4918950;28;44845;-81
2022/10/29 03:06:28;;;;;;;;;15.67;13.33;;;;;18.63;100.00;101007.25;4902605;29;45443;-82
2022/10/29 03:08:55;;;;;;;;;14.00;13.00;;;;;18.66;100.00;101009.88;4902926;28;45509;-82
2022/10/29 03:11:20;;;;;;;;;15.67;12.33;;;;;18.67;100.00;101013.50;4918498;28;45358;-82
2022/10/29 03:13:46;;;;;;;;;17.00;15.33;;;;;18.64;100.00;101006.31;4918757;28;45909;-82
2022/10/29 03:16:11;;;;;;;;;15.67;14.33;;;;;18.63;100.00;101001.00;4901658;28;45442;-82
2022/10/29 03:18:36;;;;;;;;;15.00;15.00;;;;;18.66;100.00;101007.19;4917538;29;45389;-82
2022/10/29 03:21:02;;;;;;;;;20.00;17.67;;;;;18.61;100.00;101009.09;4918533;28;45557;-82
2022/10/29 03:23:27;;;;;;;;;16.67;14.00;;;;;18.60;100.00;101012.69;4916811;28;44877;-82
2022/10/29 03:25:54;;;;;;;;;16.00;16.00;;;;;18.61;100.00;101010.91;4918568;28;46024;-82
2022/10/29 03:28:24;;;;;;;;;15.00;14.00;;;;;18.64;100.00;101008.13;4917516;28;45541;-81
2022/10/29 03:30:50;;;;;;;;;16.00;13.00;;;;;18.57;100.00;101000.16;4900614;29;45431;-81
2022/10/29 03:33:18;;;;;;;;;18.00;16.00;;;;;18.61;100.00;101019.88;4916947;28;44756;-81
2022/10/29 03:35:43;;;;;;;;;14.67;13.00;;;;;18.66;100.00;101023.34;4918079;28;45506;-81
2022/10/29 03:38:12;;;;;;;;;15.33;14.33;;;;;18.58;100.00;101012.72;4901649;29;45422;-81
2022/10/29 03:40:37;;;;;;;;;12.33;12.33;;;;;18.46;100.00;100993.13;4915741;28;46775;-81
2022/10/29 03:43:04;;;;;;;;;17.67;14.67;;;;;18.65;100.00;101028.78;4917244;28;45633;-80
2022/10/29 03:45:30;;;;;;;;;14.67;14.00;;;;;18.59;100.00;101021.69;4917409;28;45478;-82
2022/10/29 03:47:56;;;;;;;;;14.00;14.00;;;;;18.57;100.00;100991.19;4918445;28;45385;-82
2022/10/29 03:50:21;;;;;;;;;18.67;15.00;;;;;18.53;100.00;100994.84;4916885;28;46034;-82
2022/10/29 03:52:46;;;;;;;;;14.00;14.00;;;;;18.53;100.00;100989.47;4917724;28;45395;-82
2022/10/29 03:55:12;;;;;;;;;19.33;17.33;;;;;18.53;100.00;100995.72;4919254;28;45383;-79
2022/10/29 03:57:37;;;;;;;;;13.00;12.00;;;;;18.50;100.00;101001.19;4916649;29;45424;-82
2022/10/29 04:00:05;;;;;;;;;16.00;16.00;;;;;18.52;100.00;100988.56;4915727;28;46954;-82
2022/10/29 04:02:30;;;;;;;;;19.00;15.00;;;;;18.51;100.00;100986.78;4915927;28;45461;-82
2022/10/29 04:04:55;;;;;;;;;16.00;14.00;;;;;18.50;100.00;100990.41;4914810;28;45844;-82
2022/10/29 04:07:21;;;;;;;;;15.00;15.00;;;;;18.49;100.00;100996.69;4917771;28;44862;-82
2022/10/29 04:09:53;;;;;;;;;20.33;17.67;;;;;18.45;100.00;100994.94;4918277;28;44970;-82
2022/10/29 04:12:30;;;;;;;;;15.33;13.00;;;;;18.33;100.00;100981.66;4917724;28;44814;-82
2022/10/29 04:14:55;;;;;;;;;19.33;13.00;;;;;18.37;100.00;100997.75;4900558;29;45627;-82
2022/10/29 04:17:21;;;;;;;;;18.00;18.00;;;;;18.39;100.00;101004.00;4901398;29;45580;-82
2022/10/29 04:19:48;;;;;;;;;20.67;16.67;;;;;18.37;100.00;101007.63;4902594;28;45582;-81
2022/10/29 04:22:13;;;;;;;;;15.33;13.00;;;;;18.36;100.00;101013.91;4898568;28;45555;-82
2022/10/29 04:24:39;;;;;;;;;15.00;13.00;;;;;18.37;100.00;101013.03;4898095;28;45387;-82
2022/10/29 04:27:04;;;;;;;;;15.00;13.33;;;;;18.39;100.00;101011.19;4897765;29;45430;-83
2022/10/29 04:29:30;;;;;;;;;13.00;13.00;;;;;18.36;100.00;101005.84;4914818;29;48013;-82
2022/10/29 04:31:56;;;;;;;;;14.00;14.00;;;;;18.35;100.00;100993.31;4915696;28;45598;-81
2022/10/29 04:34:21;;;;;;;;;17.33;15.00;;;;;18.39;100.00;101003.13;4916968;28;45643;-82
2022/10/29 04:36:46;;;;;;;;;15.67;13.00;;;;;18.35;100.00;100994.19;4916141;29;44799;-81
2022/10/29 04:39:12;;;;;;;;;12.67;11.33;;;;;18.42;100.00;100997.69;4917240;28;45376;-82
2022/10/29 04:41:37;;;;;;;;;13.33;13.33;;;;;18.41;100.00;100989.63;4916247;28;45411;-81
2022/10/29 04:44:09;;;;;;;;;10.00;7.00;;;;;18.38;100.00;100986.06;4916558;28;44895;-82
2022/10/29 04:46:35;;;;;;;;;17.00;15.33;;;;;18.45;100.00;101003.03;4916921;28;45342;-82
2022/10/29 04:49:01;;;;;;;;;17.00;15.33;;;;;18.46;100.00;100998.53;4916115;28;47124;-82
2022/10/29 04:51:26;;;;;;;;;15.00;14.33;;;;;18.43;100.00;100987.81;4912866;29;45298;-81
2022/10/29 04:53:52;;;;;;;;;15.00;15.00;;;;;18.43;100.00;100983.31;4916370;28;45345;-82
2022/10/29 04:56:17;;;;;;;;;18.67;14.33;;;;;18.46;100.00;100985.97;4917006;28;45395;-82
2022/10/29 04:58:43;;;;;;;;;12.67;12.00;;;;;18.43;100.00;100975.22;4915533;28;46568;-82
2022/10/29 05:01:13;;;;;;;;;14.00;13.00;;;;;18.43;100.00;100975.22;4916368;28;44777;-81
2022/10/29 05:03:41;;;;;;;;;14.67;12.67;;;;;18.46;100.00;100983.28;4917501;28;44807;-82
2022/10/29 05:06:07;;;;;;;;;17.00;14.00;;;;;18.43;100.00;100977.91;4915674;28;45348;-82
2022/10/29 05:08:33;;;;;;;;;13.00;13.00;;;;;18.48;100.00;100981.44;4916140;28;46952;-82
2022/10/29 05:11:12;;;;;;;;;13.33;11.67;;;;;18.46;100.00;100977.91;4915062;28;45324;-80
2022/10/29 05:13:37;;;;;;;;;13.00;12.00;;;;;18.44;100.00;100977.03;4917357;28;45350;-80
2022/10/29 05:16:03;;;;;;;;;11.33;11.33;;;;;18.45;100.00;100977.91;4917126;28;44850;-82
2022/10/29 05:18:28;;;;;;;;;16.00;13.67;;;;;18.48;100.00;100985.94;4917208;28;45186;-81
2022/10/29 05:20:54;;;;;;;;;15.67;12.00;;;;;18.44;100.00;100974.34;4917931;28;45440;-82
2022/10/29 05:23:22;;;;;;;;;15.33;13.33;;;;;18.37;100.00;100962.75;4916284;28;45499;-81
2022/10/29 05:25:50;;;;;;;;;16.00;14.33;;;;;18.36;100.00;100960.06;4917015;28;45406;-82
2022/10/29 05:28:20;;;;;;;;;16.67;12.33;;;;;18.38;100.00;100964.53;4916078;28;47692;-82
2022/10/29 05:30:48;;;;;;;;;16.33;15.33;;;;;18.30;100.00;100960.16;4916305;28;45374;-82
2022/10/29 05:33:16;;;;;;;;;16.67;14.00;;;;;18.33;100.00;100955.63;4916935;28;45496;-82
2022/10/29 05:35:42;;;;;;;;;14.00;14.00;;;;;18.29;100.00;100953.88;4918807;28;45565;-82
2022/10/29 05:38:08;;;;;;;;;13.00;12.00;;;;;18.30;100.00;100954.75;4915040;29;47073;-82
2022/10/29 05:40:35;;;;;;;;;14.67;14.67;;;;;18.21;100.00;100938.75;4916553;29;45493;-81
2022/10/29 05:43:01;;;;;;;;;12.33;12.00;;;;;18.19;100.00;100928.88;4915586;28;45351;-81
2022/10/29 05:45:26;;;;;;;;;16.00;13.33;;;;;18.25;100.00;100936.00;4899473;29;45695;-81
2022/10/29 05:47:57;;;;;;;;;14.00;13.33;;;;;18.27;100.00;100935.97;4914601;28;46679;-81
2022/10/29 05:50:26;;;;;;;;;16.75;14.25;;;;;18.21;100.00;100930.69;4915933;28;44881;-81
2022/10/29 05:53:17;;;;;;;;;14.33;14.33;;;;;18.24;100.00;100938.69;4898780;29;45245;-80
2022/10/29 05:55:43;;;;;;;;;14.33;13.33;;;;;18.27;100.00;100946.75;4898344;29;44904;-81
2022/10/29 05:58:12;;;;;;;;;9.67;7.67;;;;;18.24;100.00;100941.41;4915608;28;47269;-81
2022/10/29 06:04:00;;;;;;;;;13.33;13.33;;;;;18.22;100.00;100935.16;4917908;28;45641;-81
2022/10/29 06:06:29;;;;;;;;;12.00;12.00;;;;;18.19;100.00;100934.28;4921357;28;44802;-80
2022/10/29 06:08:55;;;;;;;;;12.67;12.67;;;;;18.23;100.00;100936.94;4919623;28;46026;-82
2022/10/29 06:11:20;;;;;;;;;14.67;14.00;;;;;18.23;100.00;100931.56;4903374;29;45505;-82
2022/10/29 06:13:47;;;;;;;;;16.67;14.00;;;;;18.23;100.00;100924.34;4919019;28;45366;-81
2022/10/29 06:16:13;;;;;;;;;11.33;11.33;;;;;18.22;100.00;100933.38;4918946;28;45369;-81
2022/10/29 06:18:38;;;;;;;;;13.67;13.33;;;;;18.21;100.00;100945.03;4918222;28;46986;-81
2022/10/29 06:21:04;;;;;;;;;17.00;14.00;;;;;18.21;100.00;100950.41;4935120;28;44803;-81
2022/10/29 06:23:29;;;;;;;;;16.00;15.00;;;;;18.17;100.00;100933.41;4919338;28;45304;-80
2022/10/29 06:26:02;;;;;;;;;12.67;11.00;;;;;18.21;100.00;100949.53;4920120;28;44891;-81
2022/10/29 06:28:28;;;;;;;;;14.00;14.00;;;;;18.14;100.00;100944.22;4934234;28;47028;-81
2022/10/29 06:30:56;;;;;;;;;7.00;6.33;;;;;18.16;100.00;100953.19;4918536;28;44838;-81
2022/10/29 06:33:22;;;;;;;;;16.33;13.00;;;;;18.24;100.00;100962.94;4935440;28;45773;-80
2022/10/29 06:35:51;;;;;;;;;14.33;14.33;;;;;18.24;100.00;100960.25;4933577;28;44887;-80
2022/10/29 06:38:16;;;;;;;;;12.33;10.67;;;;;18.27;100.00;100976.38;4933834;28;47059;-81
2022/10/29 06:40:42;;;;;;;;;19.00;13.00;;;;;18.17;100.00;100952.25;4933399;28;45486;-81
2022/10/29 06:43:11;;;;;;;;;12.00;10.67;;;;;18.20;100.00;100956.72;4919849;28;45446;-81
2022/10/29 06:45:37;;;;;;;;;13.33;13.00;;;;;18.15;100.00;100947.81;4920571;28;45567;-82
2022/10/29 06:48:06;;;;;;;;;15.33;13.00;;;;;18.15;100.00;100943.31;4934760;28;47760;-82
2022/10/29 06:50:34;;;;;;;;;19.67;15.33;;;;;18.15;100.00;100937.03;4917783;28;45285;-82
2022/10/29 06:53:05;;;;;;;;;17.67;15.00;;;;;18.15;100.00;100943.31;4917731;29;45412;-81
2022/10/29 06:55:33;;;;;;;;;17.67;16.33;;;;;18.19;100.00;100946.84;4934530;28;44962;-82
2022/10/29 06:58:01;;;;;;;;;16.00;14.00;;;;;18.17;100.00;100949.56;4920169;28;46951;-82
2022/10/29 07:00:27;;;;;;;;;13.67;13.33;;;;;18.17;100.00;100946.88;4919533;28;44801;-82
2022/10/29 07:02:53;;;;;;;;;12.33;11.00;;;;;18.18;100.00;100931.63;4918218;28;44925;-82
2022/10/29 07:05:19;;;;;;;;;11.33;11.33;;;;;18.11;100.00;100922.72;4918506;28;45438;-82
2022/10/29 07:07:44;;;;;;;;;18.00;16.33;;;;;18.16;100.00;100926.25;4918935;28;44992;-80
2022/10/29 07:10:11;;;;;;;;;12.67;12.67;;;;;18.18;100.00;100927.13;4918486;28;44847;-80
2022/10/29 07:12:43;;;;;;;;;14.67;14.67;;;;;18.19;100.00;100931.59;4908562;28;45557;-81
2022/10/29 07:15:14;;;;;;;;;17.33;12.00;;;;;18.21;100.00;100925.31;4918868;28;45225;-80
2022/10/29 07:17:40;;;;;;;;;18.00;15.00;;;;;18.18;100.00;100915.47;4916989;28;47782;-81
2022/10/29 07:20:09;;;;;;;;;15.00;13.33;;;;;18.24;100.00;100914.47;4917192;28;45873;-81
2022/10/29 07:22:35;;;;;;;;;17.33;17.33;;;;;18.24;100.00;100918.06;4918949;28;45400;-81
2022/10/29 07:25:00;;;;;;;;;18.67;17.00;;;;;18.24;100.00;100919.84;4908949;28;45326;-81
2022/10/29 07:27:29;;;;;;;;;15.67;13.00;;;;;18.24;100.00;100922.53;4899620;28;46139;-81
2022/10/29 07:29:54;;;;;;;;;18.00;13.00;;;;;18.21;100.00;100919.91;4899980;29;45441;-81
2022/10/29 07:32:22;;;;;;;;;16.67;16.67;;;;;18.18;100.00;100908.28;4899450;28;45403;-81
2022/10/29 07:34:47;;;;;;;;;11.00;11.00;;;;;18.21;100.00;100915.41;4898454;29;44912;-81
2022/10/29 07:37:13;;;;;;;;;21.33;18.67;;;;;18.08;100.00;100895.88;4898371;28;46915;-82
2022/10/29 07:39:38;;;;;;;;;16.25;16.00;;;;;18.24;100.00;100917.16;4899620;28;45376;-81
2022/10/29 07:44:33;;;;;;;;;18.33;15.67;;;;;18.23;100.00;100928.88;4936139;28;46726;-80
2022/10/29 07:47:00;;;;;;;;;15.33;13.00;;;;;18.19;100.00;100914.56;4952754;28;47258;-80
2022/10/29 07:49:27;;;;;;;;;19.00;19.00;;;;;18.31;100.00;100932.31;4951368;28;45147;-81
2022/10/29 07:51:52;;;;;;;;;13.00;13.00;;;;;18.34;100.00;100932.28;4936005;28;45443;-81
2022/10/29 07:54:17;;;;;;;;;14.00;13.00;;;;;18.38;100.00;100934.03;4935501;28;45507;-80
2022/10/29 07:56:43;;;;;;;;;13.67;13.67;;;;;18.49;100.00;100933.84;4935839;28;45814;-80
2022/10/29 07:59:16;;;;;;;;;16.00;14.00;;;;;18.50;100.00;100931.16;4935392;28;45747;-82
2022/10/29 08:01:49;;;;;;;;;15.33;15.33;;;;;18.57;100.00;100943.59;4919912;28;44763;-81
2022/10/29 08:04:15;;;;;;;;;14.33;12.67;;;;;18.54;100.00;100938.25;4935678;28;45342;-81
2022/10/29 08:06:43;;;;;;;;;17.33;13.33;;;;;18.59;100.00;100940.88;4934924;28;46820;-81
2022/10/29 08:09:11;;;;;;;;;15.33;14.33;;;;;18.62;100.00;100939.94;4952217;28;44855;-82
2022/10/29 08:11:37;;;;;;;;;17.00;15.67;;;;;18.63;100.00;100936.34;4921113;28;44768;-81
2022/10/29 08:14:04;;;;;;;;;14.67;12.33;;;;;18.66;100.00;100936.28;4938671;28;45366;-81
2022/10/29 08:16:30;;;;;;;;;17.33;15.00;;;;;18.70;100.00;100940.69;4935536;28;48149;-81
2022/10/29 08:18:55;;;;;;;;;12.33;11.67;;;;;18.78;100.00;100950.44;4952703;28;44670;-81
2022/10/29 08:21:21;;;;;;;;;17.67;14.00;;;;;18.84;100.00;100953.97;4920010;28;45495;-82
2022/10/29 08:23:47;;;;;;;;;16.67;14.00;;;;;18.85;100.00;100953.06;4936058;28;44898;-82
2022/10/29 08:26:12;;;;;;;;;15.67;15.00;;;;;18.88;100.00;100951.19;4935803;28;45424;-82
2022/10/29 08:28:43;;;;;;;;;14.00;14.00;;;;;18.88;100.00;100951.19;4949158;28;44794;-81
2022/10/29 08:31:09;;;;;;;;;18.00;14.00;;;;;18.95;100.00;100954.69;4934556;28;45402;-81
2022/10/29 08:33:35;;;;;;;;;14.33;14.33;;;;;19.02;100.00;100960.88;4935098;28;44963;-82
2022/10/29 08:36:00;;;;;;;;;13.00;12.67;;;;;19.06;100.00;100962.59;4936047;28;45122;-81
2022/10/29 08:38:26;;;;;;;;;13.33;13.33;;;;;19.07;100.00;100949.09;4935763;28;45369;-81
2022/10/29 08:41:08;;;;;;;;;16.00;14.67;;;;;19.12;100.00;100954.41;4935365;28;44877;-82
2022/10/29 08:43:33;;;;;;;;;13.33;13.33;;;;;19.18;100.00;100965.94;4949538;28;45432;-81
2022/10/29 08:45:59;;;;;;;;;12.33;11.33;;;;;19.23;100.00;100960.50;4949670;28;47053;-81
2022/10/29 08:48:37;;;;;;;;;15.00;14.00;;;;;19.28;100.00;100963.97;4949992;28;45290;-81
2022/10/29 08:51:25;;;;;;;;;20.33;13.67;;;;;19.33;100.00;100953.09;4935792;28;45280;-81
2022/10/29 08:54:40;;;;;;;;;16.00;14.00;;;;;19.45;100.00;100960.06;4937129;28;44812;-81
2022/10/29 08:57:18;;;;;;;;;9.75;8.00;;;;;19.51;100.00;100955.47;4936873;28;46396;-82
2022/10/29 09:00:11;;;;;;;;;12.00;11.67;;;;;19.64;100.00;100956.09;4946981;28;45378;-81
2022/10/29 09:02:39;;;;;;;;;12.75;11.00;;;;;19.68;100.00;100949.72;4915566;29;45437;-81
2022/10/29 09:05:31;;;;;;;;;14.50;12.50;;;;;19.71;100.00;100941.63;4915207;28;44868;-81
2022/10/29 09:08:16;;;;;;;;;14.00;13.25;;;;;19.77;100.00;100945.97;4909820;28;46375;-82
2022/10/29 09:10:53;;;;;;;;;10.25;10.25;;;;;19.82;100.00;100946.78;4916947;28;45377;-82
2022/10/29 09:13:37;;;;;;;;;15.75;14.25;;;;;19.91;100.00;100946.56;4916564;28;45445;-82
2022/10/29 09:16:41;;;;;;;;;13.00;13.00;;;;;19.99;100.00;100947.28;4932148;28;45684;-81
2022/10/29 09:19:39;;;;;;;;;16.25;13.75;;;;;20.06;100.00;100945.38;4930689;28;46896;-82
2022/10/29 09:22:29;;;;;;;;;16.67;13.67;;;;;20.13;100.00;100944.28;4930317;28;45765;-82
2022/10/29 09:25:16;;;;;;;;;14.00;13.00;;;;;20.19;100.00;100944.16;4931729;28;45393;-82
2022/10/29 09:28:02;;;;;;;;;17.00;14.33;;;;;20.22;100.00;100929.72;4931144;28;44846;-82
2022/10/29 09:30:40;;;;;;;;;13.33;12.67;;;;;20.31;100.00;100940.28;4930179;28;46410;-82
2022/10/29 09:33:23;;;;;;;;;12.33;12.00;;;;;20.41;100.00;100943.66;4915195;29;45403;-82
2022/10/29 09:35:53;;;;;;;;;14.00;11.00;;;;;20.47;100.00;100939.94;4931635;28;45230;-82
2022/10/29 09:38:35;;;;;;;;;10.00;10.00;;;;;20.47;100.00;100930.03;4916801;28;44855;-82
2022/10/29 09:41:02;;;;;;;;;11.00;10.67;;;;;20.60;100.00;100944.16;4916588;28;45240;-82
2022/10/29 09:43:58;;;;;;;;;17.67;14.67;;;;;20.58;100.00;100936.09;4923494;28;45493;-82
2022/10/29 09:46:44;;;;;;;;;11.67;11.67;;;;;20.67;100.00;100934.09;4918451;28;44849;-82
2022/10/29 09:49:19;;;;;;;;;12.00;12.00;;;;;20.74;100.00;100933.00;4935203;28;45475;-81
2022/10/29 09:51:57;;;;;;;;;14.00;13.25;;;;;20.80;100.00;100930.16;4946909;28;45303;-82
2022/10/29 09:54:26;;;;;;;;;16.50;13.50;;;;;20.80;100.00;100913.94;4937711;28;44752;-81
2022/10/29 09:56:52;;;;;;;;;13.25;11.50;;;;;20.85;100.00;100922.81;4953741;28;45627;-80
2022/10/29 09:59:27;;;;;;;;;10.50;10.50;;;;;20.90;100.00;100931.69;4952701;28;45469;-82
2022/10/29 10:02:00;;;;;;;;;11.75;11.75;;;;;20.91;100.00;100924.47;4953999;28;45500;-82
2022/10/29 10:04:39;;;;;;;;;13.50;13.50;;;;;20.93;100.00;100925.34;4954060;28;44785;-81
2022/10/29 10:07:15;;;;;;;;;17.00;13.75;;;;;20.97;100.00;100938.72;4954997;28;45499;-81
2022/10/29 10:09:54;;;;;;;;;9.75;9.50;;;;;21.00;100.00;100926.94;4953258;28;44905;-80
2022/10/29 10:12:26;;;;;;;;;16.75;13.50;;;;;20.98;100.00;100916.16;4953889;28;45170;-81
2022/10/29 10:15:06;;;;;;;;;13.50;12.25;;;;;21.11;100.00;100926.66;4952583;28;45524;-81
2022/10/29 10:18:01;;;;;;;;;11.00;9.25;;;;;21.16;100.00;100928.28;4952303;28;45412;-81
2022/10/29 10:20:38;;;;;;;;;12.00;12.00;;;;;21.21;100.00;100925.50;4954619;28;46002;-81
2022/10/29 10:23:30;;;;;;;;;7.25;6.00;;;;;21.29;100.00;100926.16;4936446;28;47434;-81
2022/10/29 10:25:57;;;;;;;;;15.50;14.25;;;;;21.34;100.00;100918.78;4954578;28;44776;-80
2022/10/29 10:28:30;;;;;;;;;15.00;12.75;;;;;21.43;100.00;100905.97;4954410;28;45516;-80
2022/10/29 10:31:10;;;;;;;;;13.50;13.25;;;;;21.58;99.01;100919.06;4954942;28;45203;-81
2022/10/29 10:33:51;;;;;;;;;13.25;13.25;;;;;21.71;100.00;100917.81;4953183;28;47068;-80
2022/10/29 10:36:20;;;;;;;;;12.50;10.75;;;;;21.84;98.76;100909.31;4954932;28;45429;-82
2022/10/29 10:38:49;;;;;;;;;10.00;10.00;;;;;22.02;95.63;100908.75;4954881;28;45504;-80
2022/10/29 10:41:24;;;;;;;;;10.50;10.00;;;;;22.06;96.54;100899.59;4954931;28;44796;-80
2022/10/29 10:43:51;;;;;;;;;10.00;10.00;;;;;22.21;93.03;100900.03;4953283;28;45504;-82
2022/10/29 10:46:32;;;;;;;;;10.25;10.25;;;;;22.27;90.51;100887.22;4954722;28;45385;-81
2022/10/29 10:49:12;;;;;;;;;10.00;10.00;;;;;22.40;91.09;100893.16;4954339;28;45349;-81
2022/10/29 10:51:43;;;;;;;;;11.50;9.00;;;;;22.52;87.48;100891.81;4951666;28;44927;-81
2022/10/29 10:54:35;;;;;;;;;15.25;12.00;;;;;22.53;85.76;100882.78;4956807;28;45389;-80
2022/10/29 10:57:10;;;;;;;;;9.75;8.50;;;;;22.59;87.85;100879.84;4939667;28;45527;-81
2022/10/29 10:59:51;;;;;;;;;12.50;11.25;;;;;22.57;84.74;100870.88;4940287;28;44803;-80
2022/10/29 11:03:01;;;;;;;;;14.75;11.75;;;;;22.65;82.71;100865.22;4954921;28;45405;-82
2022/10/29 11:05:38;;;;;;;;;12.25;8.00;;;;;22.72;85.42;100877.59;4862760;29;47319;-82
2022/10/29 11:08:18;;;;;;;;;12.50;10.50;;;;;22.70;82.82;100872.25;4879023;29;44790;-82
2022/10/29 11:11:27;;;;;;;;;9.25;9.25;;;;;22.71;82.47;100882.16;4878699;29;45466;-82
2022/10/29 11:14:13;;;;;;;;;11.75;9.75;;;;;22.73;84.74;100896.53;4879183;29;45506;-82
2022/10/29 11:16:46;;;;;;;;;14.75;12.75;;;;;22.77;83.56;100902.75;4880524;29;45229;-82
2022/10/29 11:19:41;;;;;;;;;9.25;8.50;;;;;22.80;85.21;100902.63;4880052;29;44804;-82
2022/10/29 11:22:33;;;;;;;;;12.50;11.00;;;;;22.88;84.68;100905.09;4879968;29;44754;-82
2022/10/29 11:25:35;;;;;;;;;13.25;11.25;;;;;23.00;83.87;100903.78;4891997;29;45439;-81
2022/10/29 11:28:29;;;;;;;;;11.50;9.75;;;;;23.11;nan;100896.19;4867689;29;45433;-82
2022/10/29 11:31:12;;;;;;;;;12.75;11.75;;;;;23.16;80.74;100888.75;4897900;29;45429;-82